Time;durP1;ratioP1;P1;durP2;ratioP2;P2;SDS_P1;SDS_P2;PMS_P1;PMS_P2;Temp;Humidity;BMP_temperature;BMP_pressure;BME280_temperature;BME280_humidity;BME280_pressure;Samples;Min_cycle;Max_cycle;Signal;HPM_P1;HPM_P2
2022/09/08 00:00:39;;;;;;;0.30;0.30;;;15.30;99.90;;;;;;5071829;28;20036;-84
2022/09/08 00:03:09;;;;;;;0.30;0.30;;;15.30;99.90;;;;;;5074569;28;20055;-82
2022/09/08 00:05:43;;;;;;;0.35;0.35;;;15.20;99.90;;;;;;5063501;28;20074;-78
2022/09/08 00:08:09;;;;;;;0.50;0.50;;;15.20;99.90;;;;;;5092674;28;20043;-78
2022/09/08 00:10:39;;;;;;;0.40;0.40;;;15.20;99.90;;;;;;5038638;28;20079;-85
2022/09/08 00:13:07;;;;;;;0.40;0.40;;;15.20;99.90;;;;;;5051737;28;20122;-80
2022/09/08 00:15:35;;;;;;;0.30;0.30;;;15.20;99.90;;;;;;5064218;28;20040;-84
2022/09/08 00:18:01;;;;;;;0.65;0.65;;;15.10;99.90;;;;;;5079286;28;20067;-81
2022/09/08 00:20:27;;;;;;;0.20;0.20;;;15.10;99.90;;;;;;5068719;28;20045;-82
2022/09/08 00:22:53;;;;;;;0.30;0.30;;;15.10;99.90;;;;;;5070938;28;20036;-81
2022/09/08 00:25:20;;;;;;;0.50;0.50;;;15.10;99.90;;;;;;5065814;28;20478;-77
2022/09/08 00:27:46;;;;;;;0.50;0.50;;;15.10;99.90;;;;;;5067242;28;20044;-78
2022/09/08 00:30:12;;;;;;;;;;;15.10;99.90;;;;;;5038494;28;20044;-78
2022/09/08 00:32:38;;;;;;;2.08;0.40;;;15.10;99.90;;;;;;5038712;28;20019;-82
2022/09/08 00:35:07;;;;;;;;;;;15.10;99.90;;;;;;5065832;28;20089;-81
2022/09/08 00:37:35;;;;;;;0.30;0.30;;;15.20;99.90;;;;;;5061059;28;19924;-81
2022/09/08 00:40:01;;;;;;;0.30;0.30;;;15.20;99.90;;;;;;5080609;28;20056;-79
2022/09/08 00:42:27;;;;;;;;;;;15.20;99.90;;;;;;5074201;28;20098;-82
2022/09/08 00:44:53;;;;;;;0.47;0.47;;;15.20;99.90;;;;;;5052702;28;19916;-79
2022/09/08 00:47:29;;;;;;;0.30;0.30;;;15.20;99.90;;;;;;5057719;28;20104;-78
2022/09/08 00:50:18;;;;;;;0.30;0.30;;;15.20;99.90;;;;;;5080388;28;20521;-82
2022/09/08 00:53:00;;;;;;;0.30;0.30;;;15.20;99.90;;;;;;5081758;28;20048;-77
2022/09/08 00:55:30;;;;;;;0.50;0.50;;;15.20;99.90;;;;;;5077490;28;20051;-81
2022/09/08 00:57:55;;;;;;;0.50;0.50;;;15.20;99.90;;;;;;5071418;28;20095;-79
2022/09/08 01:00:21;;;;;;;0.25;0.25;;;15.20;99.90;;;;;;5087128;28;20489;-80
2022/09/08 01:02:48;;;;;;;;;;;15.20;99.90;;;;;;5075989;28;20044;-81
2022/09/08 01:05:18;;;;;;;0.30;0.30;;;15.20;99.90;;;;;;5074046;28;20447;-80
2022/09/08 01:14:13;;;;;;;0.38;0.38;;;15.10;99.90;;;;;;5054160;28;20079;-81
2022/09/08 01:16:42;;;;;;;0.30;0.30;;;15.10;99.90;;;;;;5072229;28;20044;-83
2022/09/08 01:19:30;;;;;;;0.52;0.52;;;15.10;99.90;;;;;;5075329;28;20050;-83
2022/09/08 01:22:09;;;;;;;0.30;0.30;;;15.10;99.90;;;;;;5077217;28;20051;-77
2022/09/08 01:25:00;;;;;;;1.13;1.02;;;15.10;99.90;;;;;;5073924;28;20051;-82
2022/09/08 01:27:33;;;;;;;0.30;0.30;;;15.10;99.90;;;;;;5076597;28;20049;-81
2022/09/08 01:30:07;;;;;;;0.50;0.50;;;15.10;99.90;;;;;;5064861;28;20128;-83
2022/09/08 01:32:35;;;;;;;0.40;0.40;;;15.10;99.90;;;;;;5055327;28;20044;-80
2022/09/08 01:35:01;;;;;;;0.30;0.30;;;15.10;99.90;;;;;;5082252;28;20044;-79
2022/09/08 01:37:26;;;;;;;0.68;0.68;;;15.10;99.90;;;;;;5051463;28;20041;-78
2022/09/08 01:39:52;;;;;;;;;;;15.20;99.90;;;;;;5074576;28;20043;-80
2022/09/08 01:42:18;;;;;;;0.65;0.65;;;15.20;99.90;;;;;;5053881;28;19916;-82
2022/09/08 01:44:44;;;;;;;0.32;0.32;;;15.20;99.90;;;;;;5080542;28;20673;-81
2022/09/08 01:47:10;;;;;;;;;;;15.30;99.90;;;;;;5077528;28;20044;-80
2022/09/08 01:49:39;;;;;;;0.43;0.43;;;15.30;99.90;;;;;;5082703;28;19916;-79
2022/09/08 01:52:08;;;;;;;0.20;0.20;;;15.30;99.90;;;;;;5072227;28;20512;-81
2022/09/08 01:54:34;;;;;;;0.40;0.40;;;15.30;99.90;;;;;;5065595;28;20040;-77
2022/09/08 01:57:03;;;;;;;1.38;0.85;;;15.40;99.90;;;;;;5074701;28;20057;-83
2022/09/08 01:59:30;;;;;;;0.40;0.40;;;15.40;99.90;;;;;;5069394;28;20401;-83
2022/09/08 02:01:56;;;;;;;0.40;0.40;;;15.50;99.90;;;;;;5077717;28;20043;-78
2022/09/08 02:04:22;;;;;;;0.75;0.75;;;15.50;99.90;;;;;;5076235;28;20389;-83
2022/09/08 02:06:48;;;;;;;0.35;0.35;;;15.50;99.90;;;;;;5051586;28;20478;-81
2022/09/08 02:09:15;;;;;;;;;;;15.60;99.90;;;;;;5069325;28;20151;-86
2022/09/08 02:11:48;;;;;;;0.20;0.20;;;15.60;99.90;;;;;;5079774;28;20358;-82
2022/09/08 02:14:14;;;;;;;0.60;0.60;;;15.70;99.90;;;;;;5078394;28;20508;-81
2022/09/08 02:16:39;;;;;;;0.25;0.25;;;15.80;99.90;;;;;;5076635;28;20053;-78
2022/09/08 02:19:05;;;;;;;0.30;0.30;;;15.90;99.90;;;;;;5054199;28;20044;-82
2022/09/08 02:21:31;;;;;;;0.30;0.30;;;15.90;99.90;;;;;;5070074;28;20043;-82
2022/09/08 02:23:57;;;;;;;;;;;16.00;99.90;;;;;;5068720;28;20041;-83
2022/09/08 02:26:26;;;;;;;0.40;0.40;;;16.00;99.90;;;;;;5058331;28;19916;-81
2022/09/08 02:28:53;;;;;;;0.32;0.32;;;16.00;99.90;;;;;;5077292;28;20405;-79
2022/09/08 02:31:22;;;;;;;0.20;0.20;;;16.10;99.90;;;;;;5070257;28;20040;-81
2022/09/08 02:33:48;;;;;;;0.40;0.40;;;16.10;99.90;;;;;;5062570;28;20044;-80
2022/09/08 02:36:13;;;;;;;;;;;16.10;99.90;;;;;;5035633;28;20444;-82
2022/09/08 02:38:39;;;;;;;0.20;0.20;;;16.10;99.90;;;;;;5068750;28;19967;-83
2022/09/08 02:41:06;;;;;;;0.70;0.70;;;16.20;99.90;;;;;;5075212;28;20056;-79
2022/09/08 02:43:34;;;;;;;0.40;0.40;;;16.20;99.90;;;;;;5069638;28;20064;-79
2022/09/08 02:46:06;;;;;;;0.35;0.35;;;16.20;99.90;;;;;;5060099;28;20054;-81
2022/09/08 02:48:33;;;;;;;0.40;0.40;;;16.30;99.90;;;;;;5073990;28;20040;-81
2022/09/08 02:51:01;;;;;;;0.30;0.30;;;16.20;99.90;;;;;;5077970;28;20476;-81
2022/09/08 02:53:31;;;;;;;0.90;0.90;;;16.20;99.90;;;;;;5071503;28;20040;-81
2022/09/08 02:55:58;;;;;;;0.30;0.30;;;16.20;99.90;;;;;;5080057;28;20089;-79
2022/09/08 02:58:24;;;;;;;0.20;0.20;;;16.20;99.90;;;;;;5046909;28;20049;-81
2022/09/08 03:00:50;;;;;;;0.20;0.20;;;16.20;99.90;;;;;;5067972;28;20036;-78
2022/09/08 03:03:16;;;;;;;;;;;16.20;99.90;;;;;;5070568;28;20485;-79
2022/09/08 03:05:42;;;;;;;0.30;0.30;;;16.30;99.90;;;;;;5063774;28;19916;-81
2022/09/08 03:08:14;;;;;;;0.40;0.40;;;16.30;99.90;;;;;;5055239;28;20166;-82
2022/09/08 03:10:40;;;;;;;0.20;0.20;;;16.30;99.90;;;;;;5061688;28;20063;-81
2022/09/08 03:13:08;;;;;;;0.30;0.30;;;16.30;99.90;;;;;;5051792;28;20397;-80
2022/09/08 03:15:38;;;;;;;0.30;0.30;;;16.30;99.90;;;;;;5065180;28;20144;-78
2022/09/08 03:18:07;;;;;;;0.40;0.40;;;16.30;99.90;;;;;;5069121;28;20051;-82
2022/09/08 03:20:34;;;;;;;;;;;16.30;99.90;;;;;;5052737;28;20028;-79
2022/09/08 03:23:00;;;;;;;0.30;0.30;;;16.30;99.90;;;;;;5066510;28;20286;-79
2022/09/08 03:25:26;;;;;;;0.20;0.20;;;16.30;99.90;;;;;;5049830;28;20115;-80
2022/09/08 03:27:52;;;;;;;0.30;0.30;;;16.30;99.90;;;;;;5052095;28;20490;-81
2022/09/08 03:30:23;;;;;;;0.30;0.30;;;16.30;99.90;;;;;;5061656;28;20044;-79
2022/09/08 03:32:50;;;;;;;;;;;16.30;99.90;;;;;;5067173;28;20045;-80
2022/09/08 03:35:17;;;;;;;0.30;0.30;;;16.30;99.90;;;;;;5069287;28;19916;-78
2022/09/08 03:37:45;;;;;;;0.68;0.68;;;16.30;99.90;;;;;;5063716;28;20041;-80
2022/09/08 03:40:14;;;;;;;1.92;0.60;;;16.30;99.90;;;;;;5065143;28;20049;-80
2022/09/08 03:42:41;;;;;;;2.90;0.70;;;16.30;99.90;;;;;;5068721;28;20044;-82
2022/09/08 03:45:13;;;;;;;0.35;0.35;;;16.30;99.90;;;;;;5082901;28;20107;-80
2022/09/08 03:47:39;;;;;;;0.20;0.20;;;16.30;99.90;;;;;;5061733;28;20044;-80
2022/09/08 03:50:05;;;;;;;;;;;16.30;99.90;;;;;;5050851;28;20055;-80
2022/09/08 03:52:31;;;;;;;0.30;0.30;;;16.30;99.90;;;;;;5061753;28;20369;-79
2022/09/08 03:54:57;;;;;;;;;;;16.30;99.90;;;;;;5073870;28;20113;-80
2022/09/08 03:57:26;;;;;;;1.13;1.13;;;16.30;99.90;;;;;;5076447;28;19921;-83
2022/09/08 03:59:56;;;;;;;0.25;0.25;;;16.30;99.90;;;;;;5077507;28;20059;-78
2022/09/08 04:02:23;;;;;;;0.50;0.50;;;16.30;99.90;;;;;;5059107;28;20040;-82
2022/09/08 04:04:52;;;;;;;0.20;0.20;;;16.40;99.90;;;;;;5072248;28;20051;-82
2022/09/08 04:07:21;;;;;;;0.50;0.50;;;16.40;99.90;;;;;;5068002;28;20119;-81
2022/09/08 04:09:47;;;;;;;0.20;0.20;;;16.40;99.90;;;;;;5068395;28;20044;-80
2022/09/08 04:12:15;;;;;;;0.75;0.75;;;16.40;99.90;;;;;;5072008;28;20474;-81
2022/09/08 04:14:41;;;;;;;0.30;0.30;;;16.40;99.90;;;;;;5077953;28;20037;-79
2022/09/08 04:17:07;;;;;;;;;;;16.40;99.90;;;;;;5052902;28;20094;-80
2022/09/08 04:19:33;;;;;;;0.30;0.30;;;16.40;99.90;;;;;;5063792;28;19920;-79
2022/09/08 04:21:58;;;;;;;0.35;0.35;;;16.50;99.90;;;;;;5058536;28;20044;-79
2022/09/08 04:24:24;;;;;;;;;;;16.40;99.90;;;;;;5070082;28;20052;-78
2022/09/08 04:26:52;;;;;;;0.43;0.43;;;16.50;99.90;;;;;;5061585;28;20247;-81
2022/09/08 04:29:19;;;;;;;0.30;0.30;;;16.50;99.90;;;;;;5064759;28;20394;-80
2022/09/08 04:31:46;;;;;;;0.40;0.40;;;16.50;99.90;;;;;;5063970;28;20410;-82
2022/09/08 04:34:22;;;;;;;0.30;0.30;;;16.50;99.90;;;;;;5078857;28;20051;-81
2022/09/08 04:36:48;;;;;;;0.47;0.47;;;16.50;99.90;;;;;;5045403;28;20502;-79
2022/09/08 04:39:16;;;;;;;0.60;0.60;;;16.50;99.90;;;;;;5071299;28;20132;-80
2022/09/08 04:41:42;;;;;;;0.32;0.32;;;16.50;99.90;;;;;;5067075;28;20237;-81
2022/09/08 04:44:08;;;;;;;;;;;16.50;99.90;;;;;;5064529;28;20116;-81
2022/09/08 04:46:34;;;;;;;0.35;0.35;;;16.50;99.90;;;;;;5070249;28;19920;-80
2022/09/08 04:49:00;;;;;;;0.30;0.30;;;16.50;99.90;;;;;;5071496;28;20512;-79
2022/09/08 04:51:26;;;;;;;;;;;16.50;99.90;;;;;;5069974;28;20060;-80
2022/09/08 04:53:53;;;;;;;0.30;0.30;;;16.50;99.90;;;;;;5061796;28;19920;-79
2022/09/08 04:56:21;;;;;;;0.30;0.30;;;16.50;99.90;;;;;;5059425;28;20063;-79
2022/09/08 04:58:47;;;;;;;0.43;0.43;;;16.50;99.90;;;;;;5055614;28;20052;-78
2022/09/08 05:01:19;;;;;;;0.50;0.50;;;16.60;99.90;;;;;;5056616;28;20075;-82
2022/09/08 05:03:53;;;;;;;0.68;0.52;;;16.60;99.90;;;;;;5055693;28;20068;-77
2022/09/08 05:06:19;;;;;;;0.30;0.30;;;16.50;99.90;;;;;;5056484;28;20045;-80
2022/09/08 05:08:51;;;;;;;0.60;0.60;;;16.50;99.90;;;;;;5081641;28;20050;-80
2022/09/08 05:11:19;;;;;;;0.32;0.32;;;16.50;99.90;;;;;;5063170;28;20502;-80
2022/09/08 05:13:46;;;;;;;0.30;0.30;;;16.50;99.90;;;;;;5082325;28;20047;-81
2022/09/08 05:16:14;;;;;;;0.30;0.30;;;16.60;99.90;;;;;;5065176;28;20055;-84
2022/09/08 05:18:41;;;;;;;0.50;0.50;;;16.60;99.90;;;;;;5042023;28;20105;-83
2022/09/08 05:21:08;;;;;;;0.93;0.93;;;16.60;99.90;;;;;;5086351;28;20035;-79
2022/09/08 05:23:34;;;;;;;0.40;0.40;;;16.60;99.90;;;;;;5081391;28;20036;-80
2022/09/08 05:26:03;;;;;;;0.85;0.57;;;16.60;99.90;;;;;;5047040;28;20033;-84
2022/09/08 05:28:32;;;;;;;0.73;0.73;;;16.70;99.90;;;;;;5071454;28;20105;-80
2022/09/08 05:30:59;;;;;;;0.15;0.15;;;16.70;99.90;;;;;;5072651;28;20049;-84
2022/09/08 05:33:25;;;;;;;0.52;0.52;;;16.70;99.90;;;;;;5069542;28;20028;-83
2022/09/08 05:35:51;;;;;;;;;;;16.80;99.90;;;;;;5048346;28;20114;-83
2022/09/08 05:38:17;;;;;;;0.90;0.47;;;16.80;99.90;;;;;;5072778;28;19955;-79
2022/09/08 05:40:43;;;;;;;;;;;16.80;99.90;;;;;;5087443;28;20040;-79
2022/09/08 05:43:08;;;;;;;1.45;1.35;;;16.90;99.90;;;;;;5077154;28;19916;-82
2022/09/08 05:45:34;;;;;;;;;;;16.90;99.90;;;;;;5073270;28;20036;-80
2022/09/08 05:48:02;;;;;;;0.30;0.30;;;16.90;99.90;;;;;;5074827;28;19960;-80
2022/09/08 05:50:34;;;;;;;0.30;0.30;;;16.90;99.90;;;;;;5053867;28;20036;-80
2022/09/08 05:53:00;;;;;;;0.30;0.30;;;16.90;99.90;;;;;;5085866;28;20044;-79
2022/09/08 05:55:28;;;;;;;0.30;0.30;;;16.90;99.90;;;;;;5059299;28;20045;-79
2022/09/08 05:57:54;;;;;;;0.30;0.30;;;17.00;99.90;;;;;;5071494;28;20055;-80
2022/09/08 06:00:27;;;;;;;0.30;0.30;;;17.10;99.90;;;;;;5078449;28;20189;-80
2022/09/08 06:02:53;;;;;;;0.45;0.45;;;17.00;99.90;;;;;;5070768;28;20045;-81
2022/09/08 06:05:20;;;;;;;0.32;0.32;;;17.10;99.90;;;;;;5060995;28;20040;-81
2022/09/08 06:07:46;;;;;;;0.30;0.30;;;17.20;99.90;;;;;;5076638;28;20044;-80
2022/09/08 06:10:12;;;;;;;1.65;0.55;;;17.20;99.90;;;;;;5068445;28;20477;-81
2022/09/08 06:12:38;;;;;;;0.45;0.45;;;17.30;99.90;;;;;;5075903;28;20075;-82
2022/09/08 06:15:06;;;;;;;0.30;0.30;;;17.30;99.90;;;;;;5063298;28;20127;-81
2022/09/08 06:17:32;;;;;;;0.22;0.22;;;17.40;99.90;;;;;;5053495;28;20493;-81
2022/09/08 06:19:58;;;;;;;;;;;17.40;99.90;;;;;;5070987;28;20036;-82
2022/09/08 06:22:23;;;;;;;0.40;0.40;;;17.40;99.90;;;;;;5057074;28;19916;-81
2022/09/08 06:24:49;;;;;;;;;;;17.40;99.90;;;;;;5033100;28;20033;-79
2022/09/08 06:27:52;;;;;;;0.30;0.30;;;17.50;99.90;;;;;;5064997;28;19962;-83
2022/09/08 06:30:18;;;;;;;1.05;0.70;;;17.40;99.90;;;;;;5061504;28;20109;-83
2022/09/08 06:32:52;;;;;;;0.30;0.30;;;17.40;99.90;;;;;;5025195;28;20179;-82
2022/09/08 06:35:25;;;;;;;0.32;0.32;;;17.40;99.90;;;;;;5063957;28;20060;-82
2022/09/08 06:38:10;;;;;;;0.70;0.70;;;17.40;99.90;;;;;;5049923;28;20390;-82
2022/09/08 06:40:49;;;;;;;0.20;0.20;;;17.40;99.90;;;;;;5065068;28;20033;-80
2022/09/08 06:43:33;;;;;;;0.68;0.68;;;17.40;99.90;;;;;;5067463;28;20036;-82
2022/09/08 06:46:04;;;;;;;0.20;0.20;;;17.40;99.90;;;;;;5065903;28;20048;-82
2022/09/08 06:48:31;;;;;;;1.48;1.38;;;17.40;99.90;;;;;;5062913;28;20049;-81
2022/09/08 06:51:15;;;;;;;2.63;2.42;;;17.40;99.90;;;;;;5039673;28;20040;-82
2022/09/08 06:54:11;;;;;;;3.03;2.72;;;17.40;99.90;;;;;;5071444;28;20102;-82
2022/09/08 06:57:05;;;;;;;2.08;1.98;;;17.50;99.90;;;;;;5065332;28;20385;-81
2022/09/08 06:59:49;;;;;;;0.88;0.88;;;17.40;99.90;;;;;;5068044;28;20055;-81
2022/09/08 07:02:33;;;;;;;1.05;0.93;;;17.40;99.90;;;;;;5067579;28;20111;-81
2022/09/08 07:05:11;;;;;;;2.63;1.67;;;17.40;99.90;;;;;;5052686;28;20085;-81
2022/09/08 07:07:37;;;;;;;0.75;0.75;;;17.40;99.90;;;;;;5064450;28;20114;-82
2022/09/08 07:10:21;;;;;;;;;;;17.40;99.90;;;;;;5068504;28;20127;-81
2022/09/08 07:12:56;;;;;;;0.63;0.50;;;17.40;99.90;;;;;;5067350;28;19931;-80
2022/09/08 07:15:33;;;;;;;0.95;0.95;;;17.30;99.90;;;;;;5068418;28;20049;-81
2022/09/08 07:18:41;;;;;;;1.50;0.80;;;17.20;99.90;;;;;;5070767;28;20047;-80
2022/09/08 07:21:26;;;;;;;2.78;1.40;;;17.20;99.90;;;;;;5035757;28;20059;-80
2022/09/08 07:23:53;;;;;;;1.00;0.98;;;17.10;99.90;;;;;;5064301;28;20371;-80
2022/09/08 07:26:22;;;;;;;0.68;0.68;;;17.10;99.90;;;;;;5065451;28;20128;-80
2022/09/08 07:28:51;;;;;;;0.93;0.88;;;17.00;99.90;;;;;;5076173;28;20566;-81
2022/09/08 07:31:22;;;;;;;0.50;0.50;;;17.00;99.90;;;;;;5077705;28;21385;-80
2022/09/08 07:33:59;;;;;;;2.47;1.80;;;17.00;99.90;;;;;;5060791;28;20128;-81
2022/09/08 07:36:41;;;;;;;2.92;2.72;;;16.90;99.90;;;;;;5057477;28;20036;-83
2022/09/08 07:39:39;;;;;;;1.00;0.82;;;16.90;99.90;;;;;;5063527;28;20068;-80
2022/09/08 07:42:13;;;;;;;2.63;2.42;;;16.90;99.90;;;;;;5048779;28;20503;-81
2022/09/08 07:44:39;;;;;;;2.13;1.75;;;16.90;99.90;;;;;;5064551;28;20047;-82
2022/09/08 07:47:30;;;;;;;3.40;1.40;;;16.90;99.90;;;;;;5068659;28;20115;-80
2022/09/08 07:50:14;;;;;;;2.15;2.00;;;16.90;99.90;;;;;;5070109;28;20097;-80
2022/09/08 07:52:58;;;;;;;1.95;1.58;;;16.80;99.90;;;;;;5063784;28;20056;-81
2022/09/08 07:55:52;;;;;;;3.53;1.38;;;16.80;99.90;;;;;;5064020;28;20513;-83
2022/09/08 07:58:44;;;;;;;4.20;2.25;;;16.80;99.90;;;;;;5061291;28;20123;-81
2022/09/08 08:01:29;;;;;;;1.23;1.13;;;16.80;99.90;;;;;;5066122;28;20040;-80
2022/09/08 08:04:06;;;;;;;1.73;1.63;;;16.80;99.90;;;;;;5056467;28;20037;-80
2022/09/08 08:06:55;;;;;;;1.15;1.05;;;16.80;99.90;;;;;;5064506;28;20047;-82
2022/09/08 08:09:51;;;;;;;1.95;1.10;;;16.70;99.90;;;;;;5059954;28;20091;-81
2022/09/08 08:12:38;;;;;;;2.05;1.58;;;16.70;99.90;;;;;;5060797;28;20102;-81
2022/09/08 08:15:20;;;;;;;1.13;0.93;;;16.70;99.90;;;;;;5052715;28;20036;-81
2022/09/08 08:18:11;;;;;;;2.38;2.08;;;16.70;99.90;;;;;;5063510;28;20321;-81
2022/09/08 08:21:00;;;;;;;1.55;1.08;;;16.70;99.90;;;;;;5052776;28;20097;-82
2022/09/08 08:23:43;;;;;;;1.13;0.85;;;16.70;99.90;;;;;;5058207;28;20056;-81
2022/09/08 08:26:36;;;;;;;3.28;2.67;;;16.70;99.90;;;;;;5061140;28;20044;-82
2022/09/08 08:29:18;;;;;;;2.83;2.28;;;16.70;99.90;;;;;;5068957;28;20051;-81
2022/09/08 08:32:10;;;;;;;0.85;0.85;;;16.70;99.90;;;;;;5068925;28;20055;-83
2022/09/08 08:34:46;;;;;;;1.00;0.90;;;16.70;99.90;;;;;;5063197;28;20576;-83
2022/09/08 08:37:19;;;;;;;1.25;1.25;;;16.70;99.90;;;;;;5060338;28;20044;-82
2022/09/08 08:39:48;;;;;;;1.02;0.98;;;16.80;99.90;;;;;;5058216;28;20079;-83
2022/09/08 08:42:42;;;;;;;0.65;0.65;;;16.80;99.90;;;;;;5068483;28;20517;-81
2022/09/08 08:45:40;;;;;;;1.08;1.08;;;16.80;99.90;;;;;;5063392;28;20049;-80
2022/09/08 08:48:37;;;;;;;1.05;0.60;;;16.90;99.90;;;;;;5058373;28;20307;-80
2022/09/08 08:51:09;;;;;;;0.90;0.85;;;16.90;99.90;;;;;;5057120;28;20055;-82
2022/09/08 08:53:44;;;;;;;0.45;0.45;;;17.00;99.90;;;;;;5052115;28;20371;-82
2022/09/08 08:56:34;;;;;;;0.38;0.38;;;17.20;99.90;;;;;;5063314;28;20040;-81
2022/09/08 08:59:17;;;;;;;1.00;1.00;;;17.20;99.90;;;;;;5051094;28;20052;-80
2022/09/08 09:02:00;;;;;;;0.40;0.40;;;17.30;99.90;;;;;;5068120;28;20135;-80
2022/09/08 09:04:37;;;;;;;1.08;1.00;;;17.40;99.90;;;;;;5055697;28;20047;-80
2022/09/08 09:07:21;;;;;;;1.25;1.17;;;17.50;99.90;;;;;;5068834;28;20044;-80
2022/09/08 09:10:09;;;;;;;1.95;1.85;;;17.50;99.90;;;;;;5074654;28;20131;-79
2022/09/08 09:13:15;;;;;;;1.67;0.90;;;17.50;99.90;;;;;;5066197;28;20559;-80
2022/09/08 09:16:14;;;;;;;3.10;2.72;;;17.50;99.90;;;;;;5071820;28;20040;-80
2022/09/08 09:18:40;;;;;;;1.50;0.90;;;17.50;99.90;;;;;;5065785;28;20066;-80
2022/09/08 09:21:33;;;;;;;;;;;17.50;99.90;;;;;;5068991;28;20040;-79
2022/09/08 09:24:35;;;;;;;1.25;0.60;;;17.50;99.90;;;;;;5066308;28;20237;-80
2022/09/08 09:27:10;;;;;;;2.10;1.98;;;17.50;99.90;;;;;;5048058;28;20052;-79
2022/09/08 09:29:37;;;;;;;1.90;1.80;;;17.50;99.90;;;;;;5067255;28;20040;-80
2022/09/08 09:32:08;;;;;;;2.72;2.58;;;17.50;99.90;;;;;;5067681;28;20076;-80
2022/09/08 09:34:55;;;;;;;1.90;1.80;;;17.60;99.90;;;;;;5065236;28;20072;-79
2022/09/08 09:37:44;;;;;;;0.70;0.70;;;17.60;99.90;;;;;;5066637;28;20453;-80
2022/09/08 09:40:42;;;;;;;3.22;1.90;;;17.60;99.90;;;;;;5060982;28;20048;-79
2022/09/08 09:43:45;;;;;;;1.15;1.15;;;17.60;99.90;;;;;;5061017;28;20072;-79
2022/09/08 09:46:52;;;;;;;0.50;0.50;;;17.70;99.90;;;;;;5048861;28;20120;-80
2022/09/08 09:49:32;;;;;;;0.80;0.80;;;17.80;99.90;;;;;;5041770;28;20135;-79
2022/09/08 09:52:16;;;;;;;1.45;1.35;;;17.90;99.90;;;;;;5066087;28;20402;-79
2022/09/08 09:55:03;;;;;;;0.73;0.73;;;18.00;99.90;;;;;;5044412;28;20046;-81
2022/09/08 09:58:11;;;;;;;0.60;0.60;;;18.00;99.90;;;;;;5065642;28;20052;-80
2022/09/08 10:01:05;;;;;;;1.08;0.88;;;18.00;99.90;;;;;;5072913;28;20057;-80
2022/09/08 10:04:02;;;;;;;0.60;0.60;;;18.00;99.90;;;;;;5061341;28;20395;-79
2022/09/08 10:06:52;;;;;;;1.00;1.00;;;18.00;99.90;;;;;;5064740;28;20044;-81
2022/09/08 10:09:33;;;;;;;4.72;0.80;;;18.00;99.90;;;;;;5066732;28;20045;-79
2022/09/08 10:12:30;;;;;;;1.60;1.40;;;18.00;99.90;;;;;;5066198;28;20154;-80
2022/09/08 10:15:34;;;;;;;0.60;0.57;;;18.00;99.90;;;;;;5081690;28;20286;-81
2022/09/08 10:18:21;;;;;;;0.63;0.63;;;18.10;99.90;;;;;;5065696;28;20044;-82
2022/09/08 10:21:21;;;;;;;1.00;0.60;;;18.10;99.90;;;;;;5065223;28;20052;-80
2022/09/08 10:24:19;;;;;;;0.30;0.30;;;18.10;99.90;;;;;;5063875;28;20032;-81
2022/09/08 10:26:56;;;;;;;0.38;0.38;;;18.10;99.90;;;;;;5052414;28;20056;-80
2022/09/08 10:29:41;;;;;;;0.30;0.30;;;18.10;99.90;;;;;;5063545;28;20374;-80
2022/09/08 10:32:41;;;;;;;0.40;0.40;;;18.00;99.90;;;;;;5056662;28;20036;-80
2022/09/08 10:35:41;;;;;;;0.80;0.80;;;18.00;99.90;;;;;;5056549;28;20045;-80
2022/09/08 10:38:17;;;;;;;0.40;0.40;;;17.90;99.90;;;;;;5038810;28;20041;-81
2022/09/08 10:41:14;;;;;;;0.40;0.40;;;17.80;99.90;;;;;;5044299;28;20136;-80
2022/09/08 10:43:48;;;;;;;0.20;0.20;;;17.80;99.90;;;;;;5048459;28;20075;-80
2022/09/08 10:46:51;;;;;;;0.47;0.47;;;17.80;99.90;;;;;;5062751;28;20040;-79
2022/09/08 10:49:46;;;;;;;0.32;0.32;;;17.80;99.90;;;;;;5064419;28;20105;-80
2022/09/08 10:52:43;;;;;;;0.40;0.40;;;17.80;99.90;;;;;;5066502;28;20359;-79
2022/09/08 10:55:32;;;;;;;0.30;0.30;;;17.90;99.90;;;;;;5061325;28;20040;-80
2022/09/08 10:58:23;;;;;;;0.20;0.20;;;17.90;99.90;;;;;;5058551;28;20057;-79
2022/09/08 11:01:03;;;;;;;0.80;0.80;;;17.90;99.90;;;;;;5066895;28;20040;-79
2022/09/08 11:04:04;;;;;;;1.30;0.73;;;17.90;99.90;;;;;;5048003;28;20041;-79
2022/09/08 11:07:14;;;;;;;1.13;0.47;;;17.90;99.90;;;;;;5053887;28;20048;-80
2022/09/08 11:10:00;;;;;;;0.30;0.30;;;17.80;99.90;;;;;;5058287;28;20123;-80
2022/09/08 11:12:52;;;;;;;;;;;17.70;99.90;;;;;;5063159;28;20657;-80
2022/09/08 11:15:43;;;;;;;0.32;0.32;;;17.60;99.90;;;;;;5054785;28;20385;-80
2022/09/08 11:18:26;;;;;;;5.28;0.63;;;17.60;99.90;;;;;;5064204;28;20048;-79
2022/09/08 11:20:56;;;;;;;0.30;0.30;;;17.60;99.90;;;;;;5069872;28;20135;-80
2022/09/08 11:24:00;;;;;;;0.30;0.30;;;17.50;99.90;;;;;;5051076;28;20123;-80
2022/09/08 11:26:55;;;;;;;0.30;0.30;;;17.50;99.90;;;;;;5065456;28;20421;-81
2022/09/08 11:29:37;;;;;;;0.52;0.52;;;17.90;99.90;;;;;;5044955;28;20074;-79
2022/09/08 11:32:25;;;;;;;0.40;0.40;;;17.40;99.90;;;;;;5061510;28;20131;-81
2022/09/08 11:34:59;;;;;;;0.50;0.50;;;17.40;99.90;;;;;;5061863;28;20177;-80
2022/09/08 11:37:47;;;;;;;0.30;0.30;;;17.40;99.90;;;;;;5070669;28;20051;-80
2022/09/08 11:40:37;;;;;;;0.70;0.70;;;17.40;99.90;;;;;;5080797;28;20044;-80
2022/09/08 11:43:28;;;;;;;0.30;0.30;;;17.40;99.90;;;;;;5072133;28;20089;-82
2022/09/08 11:46:37;;;;;;;0.32;0.32;;;17.40;99.90;;;;;;5071219;28;20036;-81
2022/09/08 11:49:20;;;;;;;0.40;0.40;;;17.40;99.90;;;;;;5063710;28;20083;-81
2022/09/08 11:52:16;;;;;;;0.63;0.60;;;17.40;99.90;;;;;;5078721;28;20040;-80
2022/09/08 11:54:46;;;;;;;0.50;0.50;;;17.30;99.90;;;;;;5061678;28;20056;-81
2022/09/08 11:57:52;;;;;;;0.30;0.30;;;17.20;99.90;;;;;;5069798;28;20048;-81
2022/09/08 12:00:52;;;;;;;0.45;0.43;;;17.20;99.90;;;;;;5053604;28;20044;-81
2022/09/08 12:03:51;;;;;;;0.30;0.30;;;17.20;99.90;;;;;;5050049;28;20051;-81
2022/09/08 12:06:26;;;;;;;0.63;0.50;;;17.10;99.90;;;;;;5068670;28;20044;-82
2022/09/08 12:09:18;;;;;;;0.40;0.40;;;17.10;99.90;;;;;;5050758;28;20383;-81
2022/09/08 12:12:05;;;;;;;0.20;0.20;;;17.10;99.90;;;;;;5074183;28;20040;-80
2022/09/08 12:14:53;;;;;;;0.47;0.47;;;17.10;99.90;;;;;;5075418;28;20094;-81
2022/09/08 12:17:25;;;;;;;1.02;1.02;;;17.00;99.90;;;;;;5068165;28;20041;-81
2022/09/08 12:20:26;;;;;;;0.38;0.38;;;17.00;99.90;;;;;;5071798;28;20150;-83
2022/09/08 12:23:24;;;;;;;0.35;0.30;;;17.00;99.90;;;;;;5053490;28;20041;-81
2022/09/08 12:25:52;;;;;;;;;;;16.90;99.90;;;;;;5068864;28;20044;-82
2022/09/08 12:28:36;;;;;;;0.30;0.30;;;17.00;99.90;;;;;;5054096;28;19968;-81
2022/09/08 12:31:16;;;;;;;0.30;0.30;;;17.00;99.90;;;;;;5063839;28;20198;-81
2022/09/08 12:34:03;;;;;;;0.30;0.30;;;17.00;99.90;;;;;;5063098;28;20118;-81
2022/09/08 12:36:43;;;;;;;;;;;17.00;99.90;;;;;;5061858;28;20044;-81
2022/09/08 12:39:34;;;;;;;0.30;0.30;;;17.00;99.90;;;;;;5070613;28;19956;-81
2022/09/08 12:42:22;;;;;;;0.30;0.30;;;17.00;99.90;;;;;;5069824;28;20432;-82
2022/09/08 12:45:15;;;;;;;0.30;0.30;;;17.00;99.90;;;;;;5070730;28;20269;-82
2022/09/08 12:48:05;;;;;;;0.40;0.40;;;17.10;99.90;;;;;;5054574;28;20051;-81
2022/09/08 12:50:46;;;;;;;0.30;0.30;;;17.10;99.90;;;;;;5053988;28;20043;-81
2022/09/08 12:53:12;;;;;;;0.30;0.30;;;17.20;99.90;;;;;;5069121;28;20070;-82
2022/09/08 12:55:55;;;;;;;0.50;0.50;;;17.20;99.90;;;;;;5071311;28;20036;-81
2022/09/08 12:58:29;;;;;;;0.22;0.22;;;17.20;99.90;;;;;;5069656;28;20040;-81
2022/09/08 13:01:03;;;;;;;0.25;0.25;;;17.30;99.90;;;;;;5060964;28;20041;-81
2022/09/08 13:03:40;;;;;;;0.30;0.30;;;17.40;99.90;;;;;;5069708;28;20119;-81
2022/09/08 13:06:37;;;;;;;0.20;0.20;;;17.50;99.90;;;;;;5061334;28;20483;-81
2022/09/08 13:09:21;;;;;;;0.40;0.40;;;17.40;99.90;;;;;;5058540;28;20151;-81
2022/09/08 13:11:51;;;;;;;0.50;0.50;;;17.40;99.90;;;;;;5070812;28;20048;-81
2022/09/08 13:14:44;;;;;;;0.20;0.20;;;17.40;99.90;;;;;;5070344;28;20040;-80
2022/09/08 13:17:15;;;;;;;0.20;0.20;;;17.40;99.90;;;;;;5068528;28;20072;-81
2022/09/08 13:20:43;;;;;;;0.40;0.40;;;17.40;99.90;;;;;;5071618;28;20494;-81
2022/09/08 13:23:23;;;;;;;0.30;0.30;;;17.30;99.90;;;;;;5024464;28;20048;-80
2022/09/08 13:26:21;;;;;;;0.35;0.35;;;17.30;99.90;;;;;;5069554;28;20040;-81
2022/09/08 13:29:32;;;;;;;0.20;0.20;;;17.30;99.90;;;;;;5073464;28;20421;-81
2022/09/08 13:32:04;;;;;;;0.35;0.35;;;17.40;99.90;;;;;;5064224;28;20059;-81
2022/09/08 13:35:15;;;;;;;0.60;0.60;;;17.40;99.90;;;;;;5071102;28;20040;-81
2022/09/08 13:38:06;;;;;;;0.45;0.45;;;17.40;99.90;;;;;;5063927;28;20364;-81
2022/09/08 13:41:02;;;;;;;0.30;0.30;;;17.40;99.90;;;;;;5066668;28;20040;-81
2022/09/08 13:43:55;;;;;;;0.50;0.50;;;17.40;99.90;;;;;;5062813;28;20051;-81
2022/09/08 13:46:49;;;;;;;0.22;0.22;;;17.50;99.90;;;;;;5060007;28;20040;-81
2022/09/08 13:49:46;;;;;;;0.60;0.60;;;17.60;99.90;;;;;;5074162;28;20039;-80
2022/09/08 13:52:57;;;;;;;0.45;0.45;;;17.60;99.90;;;;;;5068442;28;20094;-82